Time;durP1;ratioP1;P1;durP2;ratioP2;P2;SDS_P1;SDS_P2;PMS_P1;PMS_P2;Temp;Humidity;BMP_temperature;BMP_pressure;BME280_temperature;BME280_humidity;BME280_pressure;Samples;Min_cycle;Max_cycle;Signal;HPM_P1;HPM_P2
2023/05/30 00:05:59;;;;;;;10.00;5.18;;;;;;;;;;21001108;28;20490;-65
2023/05/30 00:16:01;;;;;;;8.15;4.60;;;;;;;;;;20999806;28;20051;-63
2023/05/30 00:26:03;;;;;;;10.18;4.90;;;;;;;;;;20997314;28;20138;-64
2023/05/30 00:36:04;;;;;;;11.30;5.35;;;;;;;;;;20996576;28;20048;-64
2023/05/30 00:46:07;;;;;;;12.25;5.32;;;;;;;;;;20997499;28;20055;-64
2023/05/30 00:56:08;;;;;;;10.02;5.13;;;;;;;;;;20997402;28;20497;-63
2023/05/30 01:06:09;;;;;;;12.10;5.30;;;;;;;;;;20996724;28;20040;-64
2023/05/30 01:16:15;;;;;;;10.52;5.43;;;;;;;;;;20996254;28;20040;-64
2023/05/30 01:26:23;;;;;;;13.05;5.30;;;;;;;;;;20994560;28;20052;-63
2023/05/30 01:36:26;;;;;;;10.30;5.40;;;;;;;;;;20995598;28;20040;-63
2023/05/30 01:46:37;;;;;;;10.98;5.50;;;;;;;;;;20994813;28;20057;-63
2023/05/30 01:56:39;;;;;;;7.75;5.00;;;;;;;;;;21009237;28;20041;-64
2023/05/30 02:06:40;;;;;;;11.05;5.55;;;;;;;;;;21010332;28;20040;-64
2023/05/30 02:16:41;;;;;;;10.25;5.40;;;;;;;;;;21009629;28;20447;-63
2023/05/30 02:26:42;;;;;;;10.73;5.20;;;;;;;;;;21008774;28;20132;-63
2023/05/30 02:36:44;;;;;;;12.27;6.25;;;;;;;;;;21006974;28;20054;-64
2023/05/30 02:46:45;;;;;;;10.65;5.85;;;;;;;;;;21007664;28;20478;-64
2023/05/30 02:56:46;;;;;;;10.93;6.03;;;;;;;;;;21006644;28;20557;-63
2023/05/30 03:06:50;;;;;;;12.20;5.25;;;;;;;;;;21003719;28;20106;-63
2023/05/30 03:16:51;;;;;;;9.23;5.10;;;;;;;;;;21005203;28;20551;-64
2023/05/30 03:26:52;;;;;;;14.95;5.57;;;;;;;;;;21002693;28;20068;-63
2023/05/30 03:36:54;;;;;;;11.20;5.90;;;;;;;;;;21002663;28;20049;-63
2023/05/30 03:46:55;;;;;;;13.35;6.10;;;;;;;;;;21004070;28;20502;-63
2023/05/30 03:56:56;;;;;;;11.48;5.55;;;;;;;;;;21003312;28;20084;-63
2023/05/30 04:06:59;;;;;;;7.90;4.70;;;;;;;;;;21002442;28;20453;-63
2023/05/30 04:17:00;;;;;;;12.02;4.93;;;;;;;;;;20999642;28;20173;-63
2023/05/30 04:27:02;;;;;;;10.15;5.13;;;;;;;;;;20999343;28;20044;-63
2023/05/30 04:37:04;;;;;;;12.75;5.38;;;;;;;;;;21000080;28;20406;-64
2023/05/30 04:47:10;;;;;;;11.23;5.07;;;;;;;;;;20998927;28;20102;-63
2023/05/30 04:57:12;;;;;;;9.10;5.47;;;;;;;;;;20998533;28;20094;-64
2023/05/30 05:07:13;;;;;;;11.70;5.75;;;;;;;;;;20997865;28;20425;-64
2023/05/30 05:17:14;;;;;;;10.65;5.72;;;;;;;;;;20997509;28;20393;-62
2023/05/30 05:27:15;;;;;;;11.55;5.43;;;;;;;;;;20995640;28;20056;-64
2023/05/30 05:37:16;;;;;;;8.65;5.57;;;;;;;;;;20995528;28;20052;-63
2023/05/30 05:47:18;;;;;;;10.55;5.57;;;;;;;;;;20996051;28;20436;-64
2023/05/30 05:57:19;;;;;;;9.00;4.93;;;;;;;;;;20994686;28;20041;-64
2023/05/30 06:07:20;;;;;;;8.38;5.05;;;;;;;;;;20994051;28;20052;-63
2023/05/30 06:17:21;;;;;;;13.20;6.25;;;;;;;;;;20994795;28;20589;-64
2023/05/30 06:27:22;;;;;;;10.85;6.07;;;;;;;;;;20993882;28;20053;-64
2023/05/30 06:37:23;;;;;;;11.95;5.97;;;;;;;;;;21000829;28;20049;-63
2023/05/30 06:47:25;;;;;;;16.80;5.80;;;;;;;;;;21008256;28;20115;-64
2023/05/30 06:57:26;;;;;;;12.52;6.70;;;;;;;;;;21007423;28;20453;-64
2023/05/30 07:07:27;;;;;;;12.82;6.95;;;;;;;;;;21006733;28;20494;-64
2023/05/30 07:17:28;;;;;;;14.45;6.88;;;;;;;;;;21006396;28;20049;-63
2023/05/30 07:27:29;;;;;;;14.68;7.00;;;;;;;;;;21005024;28;20513;-65
2023/05/30 07:37:30;;;;;;;16.98;9.88;;;;;;;;;;21004722;28;20053;-65
2023/05/30 07:47:31;;;;;;;14.75;6.88;;;;;;;;;;21003611;28;20477;-64
2023/05/30 07:57:33;;;;;;;9.75;6.28;;;;;;;;;;21001970;28;20043;-64
2023/05/30 08:07:34;;;;;;;13.60;7.75;;;;;;;;;;21001803;28;20052;-64
2023/05/30 08:17:35;;;;;;;13.63;7.07;;;;;;;;;;21001404;28;20469;-64
2023/05/30 08:27:37;;;;;;;10.85;7.22;;;;;;;;;;21000143;28;20094;-63
2023/05/30 08:37:38;;;;;;;11.45;7.07;;;;;;;;;;20998487;28;20041;-64
2023/05/30 08:47:40;;;;;;;11.68;6.32;;;;;;;;;;20997524;28;20129;-65
2023/05/30 08:57:47;;;;;;;8.93;4.95;;;;;;;;;;20997085;28;20182;-64
2023/05/30 09:07:49;;;;;;;9.00;4.57;;;;;;;;;;20997880;28;20076;-65
2023/05/30 09:17:50;;;;;;;4.97;3.65;;;;;;;;;;20997548;28;20044;-71
2023/05/30 09:27:52;;;;;;;8.13;4.65;;;;;;;;;;20996361;28;20053;-63
2023/05/30 09:37:53;;;;;;;7.60;4.22;;;;;;;;;;20996980;28;20477;-60
2023/05/30 09:47:54;;;;;;;7.93;4.20;;;;;;;;;;20996325;28;20482;-70
2023/05/30 09:57:55;;;;;;;7.72;4.38;;;;;;;;;;20992115;28;20397;-69
2023/05/30 10:07:57;;;;;;;6.50;3.42;;;;;;;;;;20993192;28;20044;-73
2023/05/30 10:18:09;;;;;;;8.85;4.03;;;;;;;;;;21008620;28;20044;-65
2023/05/30 10:28:15;;;;;;;6.25;3.60;;;;;;;;;;21000316;28;20048;-65
2023/05/30 10:38:16;;;;;;;6.22;3.90;;;;;;;;;;21004721;28;20049;-65
2023/05/30 10:48:18;;;;;;;15.45;7.95;;;;;;;;;;21008051;28;20074;-65
2023/05/30 10:58:35;;;;;;;5.20;3.38;;;;;;;;;;21006570;28;20098;-66
2023/05/30 11:08:38;;;;;;;6.10;3.40;;;;;;;;;;21005385;28;20044;-65
2023/05/30 11:18:41;;;;;;;5.95;3.20;;;;;;;;;;21005640;28;20052;-66
2023/05/30 11:28:42;;;;;;;5.10;3.13;;;;;;;;;;21003832;28;20092;-65
2023/05/30 11:38:45;;;;;;;5.03;2.95;;;;;;;;;;21004456;28;20048;-66
2023/05/30 11:48:46;;;;;;;7.22;2.38;;;;;;;;;;21003385;28;20048;-65
2023/05/30 11:58:51;;;;;;;10.25;2.83;;;;;;;;;;21002226;28;20537;-66
2023/05/30 12:08:52;;;;;;;5.47;2.53;;;;;;;;;;21001482;28;20066;-66
2023/05/30 12:18:53;;;;;;;4.20;1.98;;;;;;;;;;20999123;28;20052;-66
2023/05/30 12:28:55;;;;;;;4.07;2.15;;;;;;;;;;20998827;28;20088;-66
2023/05/30 12:38:57;;;;;;;8.43;2.92;;;;;;;;;;20997664;28;20485;-66
2023/05/30 12:48:58;;;;;;;4.57;2.78;;;;;;;;;;20997848;28;20053;-66
2023/05/30 12:58:59;;;;;;;5.25;2.45;;;;;;;;;;20998066;28;20040;-65
2023/05/30 13:09:00;;;;;;;7.40;2.40;;;;;;;;;;20997582;28;20067;-66
2023/05/30 13:19:01;;;;;;;6.25;1.95;;;;;;;;;;20997097;28;20040;-65
2023/05/30 13:29:06;;;;;;;6.32;2.00;;;;;;;;;;20996326;28;20059;-66
2023/05/30 13:39:08;;;;;;;5.13;2.20;;;;;;;;;;20996391;28;20064;-66
2023/05/30 13:49:09;;;;;;;7.60;1.95;;;;;;;;;;21008737;28;20567;-66
2023/05/30 13:59:10;;;;;;;5.18;1.30;;;;;;;;;;21013190;28;20044;-66
2023/05/30 14:09:11;;;;;;;4.20;1.13;;;;;;;;;;21011875;28;20041;-66
2023/05/30 14:19:13;;;;;;;4.22;1.30;;;;;;;;;;21010104;28;20059;-66
2023/05/30 14:29:14;;;;;;;6.50;3.53;;;;;;;;;;21009457;28;20052;-66
2023/05/30 14:39:15;;;;;;;2.92;1.40;;;;;;;;;;21009701;28;20071;-66
2023/05/30 14:49:16;;;;;;;3.97;1.27;;;;;;;;;;21008371;28;20128;-66
2023/05/30 14:59:17;;;;;;;2.90;1.58;;;;;;;;;;21007112;28;20051;-66
2023/05/30 15:09:19;;;;;;;1.98;1.45;;;;;;;;;;21005497;28;20493;-66
2023/05/30 15:19:20;;;;;;;5.32;0.95;;;;;;;;;;21005004;28;20048;-65
2023/05/30 15:29:21;;;;;;;4.05;1.10;;;;;;;;;;21004143;28;20041;-71
2023/05/30 15:39:22;;;;;;;6.85;2.08;;;;;;;;;;21004129;28;20036;-67
2023/05/30 15:49:24;;;;;;;4.07;1.55;;;;;;;;;;21003493;28;20509;-63
2023/05/30 15:59:25;;;;;;;2.90;1.30;;;;;;;;;;21002586;28;20513;-72
2023/05/30 16:09:26;;;;;;;4.82;1.23;;;;;;;;;;20999131;28;20048;-63
2023/05/30 16:19:27;;;;;;;9.88;1.25;;;;;;;;;;20991884;28;20055;-63
2023/05/30 16:29:29;;;;;;;5.88;1.23;;;;;;;;;;20994525;28;20421;-66
2023/05/30 16:39:30;;;;;;;3.10;1.13;;;;;;;;;;20998387;28;20040;-64
2023/05/30 16:49:32;;;;;;;4.45;1.42;;;;;;;;;;20998622;28;20139;-63
2023/05/30 16:59:33;;;;;;;6.78;1.40;;;;;;;;;;20998142;28;20076;-63
2023/05/30 17:09:34;;;;;;;4.68;1.50;;;;;;;;;;20996727;28;20075;-63
2023/05/30 17:19:35;;;;;;;4.68;1.10;;;;;;;;;;20997188;28;20084;-64
2023/05/30 17:29:39;;;;;;;4.13;1.35;;;;;;;;;;20996419;28;20058;-64
2023/05/30 17:39:42;;;;;;;5.35;1.10;;;;;;;;;;20995318;28;20071;-63
2023/05/30 17:49:44;;;;;;;4.07;1.45;;;;;;;;;;20994730;28;20135;-64
2023/05/30 17:59:45;;;;;;;2.50;1.30;;;;;;;;;;20994885;28;20120;-64
2023/05/30 18:09:47;;;;;;;6.85;1.55;;;;;;;;;;20994845;28;20036;-62
2023/05/30 18:19:48;;;;;;;2.85;1.40;;;;;;;;;;20995086;28;20052;-63
2023/05/30 18:29:49;;;;;;;3.20;1.55;;;;;;;;;;20995404;28;20130;-63
2023/05/30 18:39:51;;;;;;;7.15;2.20;;;;;;;;;;21009385;28;20052;-63
2023/05/30 18:49:52;;;;;;;5.82;1.70;;;;;;;;;;21008142;28;20051;-63
2023/05/30 18:59:53;;;;;;;6.55;2.38;;;;;;;;;;21007227;28;20067;-64
2023/05/30 19:09:54;;;;;;;15.38;2.35;;;;;;;;;;21008101;28;20044;-63
2023/05/30 19:19:57;;;;;;;7.22;2.50;;;;;;;;;;21005797;28;20040;-63
2023/05/30 19:29:59;;;;;;;5.28;2.90;;;;;;;;;;21003451;28;20045;-63
2023/05/30 19:40:00;;;;;;;7.88;2.80;;;;;;;;;;21003094;28;20060;-63
2023/05/30 19:50:02;;;;;;;4.28;2.00;;;;;;;;;;21001016;28;20049;-63
2023/05/30 20:00:03;;;;;;;5.75;2.42;;;;;;;;;;21001367;28;20036;-63
2023/05/30 20:10:05;;;;;;;5.20;2.28;;;;;;;;;;20999619;28;20102;-63
2023/05/30 20:20:06;;;;;;;3.50;1.77;;;;;;;;;;20999201;28;20041;-64
2023/05/30 20:30:07;;;;;;;6.75;3.60;;;;;;;;;;20998453;28;20041;-63
2023/05/30 20:40:09;;;;;;;7.20;3.25;;;;;;;;;;20999806;28;20501;-65
2023/05/30 20:50:10;;;;;;;6.82;2.40;;;;;;;;;;20998296;28;20520;-64
2023/05/30 21:00:11;;;;;;;7.55;3.40;;;;;;;;;;20996804;28;20044;-64
2023/05/30 21:10:13;;;;;;;5.22;2.35;;;;;;;;;;20994846;28;20041;-63
2023/05/30 21:20:14;;;;;;;4.90;1.98;;;;;;;;;;20995013;28;20040;-64
2023/05/30 21:30:15;;;;;;;9.50;2.50;;;;;;;;;;20993967;28;20068;-64
2023/05/30 21:40:16;;;;;;;6.53;3.08;;;;;;;;;;20994062;28;20126;-63
2023/05/30 21:50:17;;;;;;;10.30;6.50;;;;;;;;;;20994753;28;20571;-63
2023/05/30 22:00:19;;;;;;;6.60;3.13;;;;;;;;;;20994306;28;20156;-63
2023/05/30 22:10:20;;;;;;;6.88;2.40;;;;;;;;;;21003708;28;20040;-64
2023/05/30 22:20:21;;;;;;;9.02;2.78;;;;;;;;;;21008503;28;20053;-64
2023/05/30 22:30:23;;;;;;;9.80;3.78;;;;;;;;;;21008615;28;20469;-63
2023/05/30 22:40:24;;;;;;;7.40;3.70;;;;;;;;;;21007646;28;20049;-63
2023/05/30 22:50:25;;;;;;;6.13;3.72;;;;;;;;;;21006830;28;20051;-62
2023/05/30 23:00:26;;;;;;;8.07;3.65;;;;;;;;;;21006986;28;20040;-63
2023/05/30 23:10:27;;;;;;;9.18;3.70;;;;;;;;;;21007615;28;20371;-63
2023/05/30 23:20:28;;;;;;;6.57;3.25;;;;;;;;;;21006470;28;20625;-62
2023/05/30 23:30:29;;;;;;;6.53;3.40;;;;;;;;;;21005148;28;20544;-63
2023/05/30 23:40:30;;;;;;;9.57;3.92;;;;;;;;;;21003944;28;20083;-63
2023/05/30 23:50:32;;;;;;;4.50;3.25;;;;;;;;;;21004555;28;20049;-63
